createdAt,value
2018-02-10T00:03:56.342Z,96.60
2018-02-10T00:10:00.901Z,97.27
2018-02-10T00:16:06.259Z,100.37
2018-02-10T00:22:11.527Z,101.60
2018-02-10T00:28:16.171Z,86.87
2018-02-10T00:34:20.984Z,92.97
2018-02-10T00:40:26.267Z,108.63
2018-02-10T00:46:31.518Z,84.53
2018-02-10T00:52:36.059Z,98.40
2018-02-10T00:58:40.707Z,83.37
2018-02-10T01:04:45.970Z,87.03
2018-02-10T01:10:51.007Z,101.67
2018-02-10T01:16:55.572Z,83.27
2018-02-10T01:23:00.225Z,106.90
2018-02-10T01:29:04.786Z,91.00
2018-02-10T01:35:09.380Z,77.73
2018-02-10T01:41:13.910Z,81.40
2018-02-10T01:47:18.528Z,81.87
2018-02-10T01:53:23.420Z,75.10
2018-02-10T01:59:28.127Z,85.43
2018-02-10T02:05:32.654Z,78.97
2018-02-10T02:11:37.153Z,77.93
2018-02-10T02:17:41.701Z,73.20
2018-02-10T02:23:47.811Z,68.80
2018-02-10T02:29:53.281Z,77.00
2018-02-10T02:35:57.842Z,85.43
2018-02-10T02:42:02.436Z,92.07
2018-02-10T02:48:06.980Z,75.93
2018-02-10T02:54:11.531Z,84.27
2018-02-10T03:00:17.064Z,91.60
2018-02-10T03:06:21.651Z,73.80
2018-02-10T03:12:26.236Z,84.83
2018-02-10T03:18:30.804Z,90.23
2018-02-10T03:24:35.277Z,85.33
2018-02-10T03:30:39.827Z,73.43
2018-02-10T03:36:44.467Z,85.37
2018-02-10T03:42:49.981Z,77.90
2018-02-10T03:48:54.987Z,85.33
2018-02-10T03:54:59.512Z,88.63
2018-02-10T04:01:04.020Z,65.50
2018-02-10T04:07:08.519Z,93.37
2018-02-10T04:13:13.202Z,85.07
2018-02-10T04:19:17.736Z,80.43
2018-02-10T04:25:22.705Z,81.67
2018-02-10T04:31:27.279Z,89.20
2018-02-10T04:37:31.905Z,94.67
2018-02-10T04:43:37.359Z,80.43
2018-02-10T04:49:42.058Z,75.37
2018-02-10T04:55:46.609Z,79.77
2018-02-10T05:01:51.602Z,81.80
2018-02-10T05:07:56.083Z,74.10
2018-02-10T05:14:00.800Z,84.83
2018-02-10T05:20:05.272Z,72.53
2018-02-10T05:26:10.792Z,81.87
2018-02-10T05:32:15.347Z,77.90
2018-02-10T05:38:20.586Z,73.20
2018-02-10T05:44:25.455Z,81.57
2018-02-10T05:50:30.287Z,86.30
2018-02-10T05:56:35.035Z,78.37
2018-02-10T06:02:40.286Z,93.93
2018-02-10T06:08:44.800Z,78.67
2018-02-10T06:14:49.465Z,81.03
2018-02-10T06:20:55.804Z,85.77
2018-02-10T06:27:01.196Z,79.10
2018-02-10T06:33:05.755Z,80.53
2018-02-10T06:39:10.225Z,75.70
2018-02-10T06:45:14.727Z,85.50
2018-02-10T06:51:19.374Z,68.90
2018-02-10T06:57:24.226Z,77.30
2018-02-10T07:03:28.844Z,83.83
2018-02-10T07:09:33.328Z,69.93
2018-02-10T07:15:37.811Z,73.57
2018-02-10T07:21:42.319Z,71.73
2018-02-10T07:27:46.960Z,79.00
2018-02-10T07:33:52.771Z,74.53
2018-02-10T07:39:57.301Z,86.83
2018-02-10T07:46:02.870Z,95.13
2018-02-10T07:52:07.361Z,80.30
2018-02-10T07:58:12.624Z,78.43
2018-02-10T08:04:17.438Z,74.73
2018-02-10T08:10:22.053Z,75.60
2018-02-10T08:16:27.322Z,78.40
2018-02-10T08:22:31.975Z,78.63
2018-02-10T08:28:36.499Z,84.50
2018-02-10T08:34:41.156Z,83.87
2018-02-10T08:40:45.739Z,70.00
2018-02-10T08:46:51.024Z,76.10
2018-02-10T08:52:55.648Z,83.83
2018-02-10T08:59:00.121Z,67.53
2018-02-10T09:05:05.354Z,78.47
2018-02-10T09:11:09.846Z,66.87
2018-02-10T09:17:14.517Z,70.83
2018-02-10T09:23:19.925Z,66.93
2018-02-10T09:29:25.026Z,75.10
2018-02-10T09:35:29.499Z,71.17
2018-02-10T09:41:34.164Z,62.33
2018-02-10T09:47:38.680Z,63.70
2018-02-10T09:53:43.306Z,75.50
2018-02-10T09:59:48.530Z,73.63
2018-02-10T10:05:53.087Z,68.13
2018-02-10T10:11:57.547Z,70.60
2018-02-10T10:18:02.057Z,71.13
2018-02-10T10:24:06.776Z,74.93
2018-02-10T10:30:11.422Z,79.30
2018-02-10T10:36:15.991Z,67.87
2018-02-10T10:42:21.077Z,72.33
2018-02-10T10:48:25.687Z,67.77
2018-02-10T10:54:30.178Z,74.57
2018-02-10T11:00:35.444Z,78.90
2018-02-10T11:06:39.955Z,69.30
2018-02-10T11:12:44.485Z,69.73
2018-02-10T11:18:48.988Z,79.13
2018-02-10T11:24:53.510Z,77.50
2018-02-10T11:30:58.085Z,70.80
2018-02-10T11:37:03.394Z,72.00
2018-02-10T11:43:07.918Z,72.43
2018-02-10T11:49:12.361Z,78.03
2018-02-10T11:55:16.856Z,80.13
2018-02-10T12:01:21.480Z,91.13
2018-02-10T12:07:26.012Z,86.03
2018-02-10T12:13:30.501Z,87.03
2018-02-10T12:19:34.975Z,74.30
2018-02-10T12:25:39.502Z,75.50
2018-02-10T12:31:44.745Z,79.77
2018-02-10T12:37:49.282Z,73.60
2018-02-10T12:43:53.790Z,77.70
2018-02-10T12:49:58.280Z,74.07
2018-02-10T12:56:02.854Z,90.37
2018-02-10T13:02:07.344Z,78.50
2018-02-10T13:08:11.868Z,104.97
2018-02-10T13:14:17.118Z,80.77
2018-02-10T13:20:22.568Z,80.00
2018-02-10T13:26:27.854Z,67.80
2018-02-10T13:32:33.313Z,81.10
2018-02-10T13:38:37.946Z,82.33
2018-02-10T13:44:43.171Z,83.90
2018-02-10T13:50:47.656Z,82.37
2018-02-10T13:56:52.243Z,82.43
2018-02-10T14:02:56.714Z,75.83
2018-02-10T14:09:01.209Z,73.07
2018-02-10T14:15:05.735Z,77.50
2018-02-10T14:21:10.242Z,79.43
2018-02-10T14:27:14.809Z,76.27
2018-02-10T14:33:19.284Z,70.30
2018-02-10T14:39:23.843Z,70.93
2018-02-10T14:45:29.078Z,88.23
2018-02-10T14:51:33.552Z,71.30
2018-02-10T14:57:38.150Z,71.37
2018-02-10T15:03:42.645Z,75.90
2018-02-10T15:09:47.120Z,78.57
2018-02-10T15:15:51.807Z,76.80
2018-02-10T15:21:56.379Z,80.13
2018-02-10T15:28:00.937Z,79.43
2018-02-10T15:40:54.567Z,74.30
2018-02-10T15:47:00.030Z,73.87
2018-02-10T15:53:04.643Z,73.83
2018-02-10T15:59:09.958Z,74.47
2018-02-10T16:05:14.767Z,76.80
2018-02-10T16:11:19.334Z,67.60
2018-02-10T16:17:23.862Z,76.07
2018-02-10T16:23:28.541Z,65.57
2018-02-10T16:29:33.081Z,64.90
2018-02-10T16:35:37.595Z,58.53
2018-02-10T16:41:42.498Z,62.47
2018-02-10T16:47:47.819Z,61.00
2018-02-10T16:53:52.470Z,58.90
2018-02-10T16:59:57.020Z,61.27
2018-02-10T17:06:01.559Z,57.67
2018-02-10T17:12:06.102Z,66.27
2018-02-10T17:18:10.762Z,62.33
2018-02-10T17:24:15.434Z,66.57
2018-02-10T17:30:20.719Z,59.77
2018-02-10T17:36:26.396Z,52.17
2018-02-10T17:42:31.188Z,54.10
2018-02-10T17:48:35.955Z,63.80
2018-02-10T17:54:41.220Z,68.83
2018-02-10T18:00:45.744Z,60.77
2018-02-10T18:06:51.170Z,57.37
2018-02-10T18:12:55.697Z,54.00
2018-02-10T18:19:00.971Z,50.97
2018-02-10T18:25:05.466Z,71.03
2018-02-10T18:31:10.010Z,52.17
2018-02-10T18:37:14.522Z,53.43
2018-02-10T18:43:19.823Z,50.77
2018-02-10T18:49:24.643Z,53.80
2018-02-10T18:55:29.163Z,51.77
2018-02-10T19:01:33.692Z,46.10
2018-02-10T19:07:38.455Z,44.67
2018-02-10T19:13:43.741Z,44.23
2018-02-10T19:19:48.288Z,40.57
2018-02-10T19:25:52.859Z,54.43
2018-02-10T19:31:57.393Z,48.33
2018-02-10T19:38:02.747Z,41.93
2018-02-10T19:44:07.242Z,43.70
2018-02-10T19:50:11.753Z,41.70
2018-02-10T19:56:17.211Z,50.67
2018-02-10T20:02:22.170Z,39.00
2018-02-10T20:08:26.783Z,41.57
2018-02-10T20:14:31.302Z,36.43
2018-02-10T20:20:35.817Z,37.87
2018-02-10T20:26:40.351Z,40.33
2018-02-10T20:32:44.881Z,40.77
2018-02-10T20:38:50.180Z,37.17
2018-02-10T20:44:54.936Z,34.60
2018-02-10T20:50:59.499Z,41.60
2018-02-10T20:57:04.413Z,36.10
2018-02-10T21:03:08.961Z,34.60
2018-02-10T21:09:14.263Z,32.43
2018-02-10T21:15:18.767Z,39.87
2018-02-10T21:21:25.177Z,39.47
2018-02-10T21:27:30.539Z,36.70
2018-02-10T21:33:35.958Z,36.20
2018-02-10T21:39:40.469Z,36.70
2018-02-10T21:45:44.991Z,39.80
2018-02-10T21:51:50.318Z,33.23
2018-02-10T21:57:54.826Z,36.10
2018-02-10T22:03:59.382Z,37.27
2018-02-10T22:10:04.786Z,30.33
2018-02-10T22:16:09.392Z,33.47
2018-02-10T22:22:13.887Z,34.43
2018-02-10T22:28:18.584Z,36.70
2018-02-10T22:34:23.169Z,31.50
2018-02-10T22:40:28.463Z,33.17
2018-02-10T22:46:33.773Z,33.63
2018-02-10T22:52:38.302Z,35.20
2018-02-10T22:58:42.787Z,32.00
2018-02-10T23:04:48.241Z,35.83
2018-02-10T23:10:52.890Z,35.10
2018-02-10T23:16:58.289Z,40.63
2018-02-10T23:23:03.555Z,41.33
2018-02-10T23:29:08.074Z,39.27
2018-02-10T23:35:12.710Z,39.00
2018-02-10T23:41:18.347Z,35.57
2018-02-10T23:47:23.241Z,31.20
2018-02-10T23:53:28.009Z,31.20
2018-02-10T23:59:33.399Z,31.27
